sensor_id;sensor_type;location;lat;lon;timestamp;temperature;humidity
61351;DHT22;47119;49.130;9.218;2023-04-25T00:00:08;13.54;68.86
61351;DHT22;47119;49.130;9.218;2023-04-25T00:02:39;13.52;68.45
61351;DHT22;47119;49.130;9.218;2023-04-25T00:05:09;13.49;68.49
61351;DHT22;47119;49.130;9.218;2023-04-25T00:07:39;13.49;68.53
61351;DHT22;47119;49.130;9.218;2023-04-25T00:10:10;13.46;68.49
61351;DHT22;47119;49.130;9.218;2023-04-25T00:12:40;13.46;68.57
61351;DHT22;47119;49.130;9.218;2023-04-25T00:15:07;13.54;68.54
61351;DHT22;47119;49.130;9.218;2023-04-25T00:17:37;13.52;68.41
61351;DHT22;47119;49.130;9.218;2023-04-25T00:20:05;13.54;68.42
61351;DHT22;47119;49.130;9.218;2023-04-25T00:22:39;13.56;68.40
61351;DHT22;47119;49.130;9.218;2023-04-25T00:25:08;13.47;68.32
61351;DHT22;47119;49.130;9.218;2023-04-25T00:27:35;13.54;68.35
61351;DHT22;47119;49.130;9.218;2023-04-25T00:30:07;13.57;68.20
61351;DHT22;47119;49.130;9.218;2023-04-25T00:32:35;13.53;67.64
61351;DHT22;47119;49.130;9.218;2023-04-25T00:35:04;13.56;67.80
61351;DHT22;47119;49.130;9.218;2023-04-25T00:37:32;13.52;67.52
61351;DHT22;47119;49.130;9.218;2023-04-25T00:40:01;13.57;67.63
61351;DHT22;47119;49.130;9.218;2023-04-25T00:42:32;13.56;67.66
61351;DHT22;47119;49.130;9.218;2023-04-25T00:45:06;13.54;67.59
61351;DHT22;47119;49.130;9.218;2023-04-25T00:47:36;13.50;67.66
61351;DHT22;47119;49.130;9.218;2023-04-25T00:50:06;13.49;67.57
61351;DHT22;47119;49.130;9.218;2023-04-25T00:52:37;13.47;67.64
61351;DHT22;47119;49.130;9.218;2023-04-25T00:55:09;13.49;67.59
61351;DHT22;47119;49.130;9.218;2023-04-25T00:57:37;13.52;67.41
61351;DHT22;47119;49.130;9.218;2023-04-25T01:00:12;13.54;67.31
61351;DHT22;47119;49.130;9.218;2023-04-25T01:02:40;13.53;67.39
61351;DHT22;47119;49.130;9.218;2023-04-25T01:05:08;13.47;67.23
61351;DHT22;47119;49.130;9.218;2023-04-25T01:07:35;13.49;67.30
61351;DHT22;47119;49.130;9.218;2023-04-25T01:10:08;13.46;67.44
61351;DHT22;47119;49.130;9.218;2023-04-25T01:12:38;13.50;67.23
61351;DHT22;47119;49.130;9.218;2023-04-25T01:15:06;13.53;67.13
61351;DHT22;47119;49.130;9.218;2023-04-25T01:17:35;13.47;67.38
61351;DHT22;47119;49.130;9.218;2023-04-25T01:20:05;13.52;67.05
61351;DHT22;47119;49.130;9.218;2023-04-25T01:22:36;13.56;67.27
61351;DHT22;47119;49.130;9.218;2023-04-25T01:25:07;13.52;67.27
61351;DHT22;47119;49.130;9.218;2023-04-25T01:27:38;13.56;67.69
61351;DHT22;47119;49.130;9.218;2023-04-25T01:30:07;13.56;67.43
61351;DHT22;47119;49.130;9.218;2023-04-25T01:32:36;13.59;67.74
61351;DHT22;47119;49.130;9.218;2023-04-25T01:35:05;13.49;68.21
61351;DHT22;47119;49.130;9.218;2023-04-25T01:37:36;13.50;68.28
61351;DHT22;47119;49.130;9.218;2023-04-25T01:40:07;13.47;68.19
61351;DHT22;47119;49.130;9.218;2023-04-25T01:42:37;13.47;68.39
61351;DHT22;47119;49.130;9.218;2023-04-25T01:45:09;13.52;68.24
61351;DHT22;47119;49.130;9.218;2023-04-25T01:47:40;13.54;68.18
61351;DHT22;47119;49.130;9.218;2023-04-25T01:50:11;13.44;68.52
61351;DHT22;47119;49.130;9.218;2023-04-25T01:52:45;13.50;68.13
61351;DHT22;47119;49.130;9.218;2023-04-25T01:55:15;13.44;68.23
61351;DHT22;47119;49.130;9.218;2023-04-25T01:57:51;13.43;68.51
61351;DHT22;47119;49.130;9.218;2023-04-25T02:00:23;13.46;68.25
61351;DHT22;47119;49.130;9.218;2023-04-25T02:02:52;13.43;67.98
61351;DHT22;47119;49.130;9.218;2023-04-25T02:05:27;13.36;68.36
61351;DHT22;47119;49.130;9.218;2023-04-25T02:07:58;13.43;67.91
61351;DHT22;47119;49.130;9.218;2023-04-25T02:10:27;13.38;68.35
61351;DHT22;47119;49.130;9.218;2023-04-25T02:13:05;13.40;68.14
61351;DHT22;47119;49.130;9.218;2023-04-25T02:15:41;13.50;67.74
61351;DHT22;47119;49.130;9.218;2023-04-25T02:18:13;13.50;67.49
61351;DHT22;47119;49.130;9.218;2023-04-25T02:20:45;13.46;67.77
61351;DHT22;47119;49.130;9.218;2023-04-25T02:23:13;13.44;68.10
61351;DHT22;47119;49.130;9.218;2023-04-25T02:25:45;13.40;67.75
61351;DHT22;47119;49.130;9.218;2023-04-25T02:28:15;13.39;67.60
61351;DHT22;47119;49.130;9.218;2023-04-25T02:30:44;13.39;67.78
61351;DHT22;47119;49.130;9.218;2023-04-25T02:33:11;13.38;67.85
61351;DHT22;47119;49.130;9.218;2023-04-25T02:35:43;13.39;67.95
61351;DHT22;47119;49.130;9.218;2023-04-25T02:38:14;13.42;67.88
61351;DHT22;47119;49.130;9.218;2023-04-25T02:40:43;13.44;68.01
61351;DHT22;47119;49.130;9.218;2023-04-25T02:43:10;13.50;67.65
61351;DHT22;47119;49.130;9.218;2023-04-25T02:45:37;13.42;67.81
61351;DHT22;47119;49.130;9.218;2023-04-25T02:48:06;13.44;67.67
61351;DHT22;47119;49.130;9.218;2023-04-25T02:50:35;13.44;67.94
61351;DHT22;47119;49.130;9.218;2023-04-25T02:53:04;13.46;67.73
61351;DHT22;47119;49.130;9.218;2023-04-25T02:55:38;13.40;67.64
61351;DHT22;47119;49.130;9.218;2023-04-25T02:58:07;13.46;67.93
61351;DHT22;47119;49.130;9.218;2023-04-25T03:00:52;13.46;67.61
61351;DHT22;47119;49.130;9.218;2023-04-25T03:03:22;13.46;67.86
61351;DHT22;47119;49.130;9.218;2023-04-25T03:05:51;13.38;67.77
61351;DHT22;47119;49.130;9.218;2023-04-25T03:08:26;13.40;67.96
61351;DHT22;47119;49.130;9.218;2023-04-25T03:11:02;13.29;67.86
61351;DHT22;47119;49.130;9.218;2023-04-25T03:13:31;13.30;68.17
61351;DHT22;47119;49.130;9.218;2023-04-25T03:16:00;13.35;67.98
61351;DHT22;47119;49.130;9.218;2023-04-25T03:18:32;13.44;67.94
61351;DHT22;47119;49.130;9.218;2023-04-25T03:21:01;13.47;67.39
61351;DHT22;47119;49.130;9.218;2023-04-25T03:23:31;13.40;68.06
61351;DHT22;47119;49.130;9.218;2023-04-25T03:25:58;13.38;67.81
61351;DHT22;47119;49.130;9.218;2023-04-25T03:28:26;13.44;67.99
61351;DHT22;47119;49.130;9.218;2023-04-25T03:30:55;13.40;67.68
61351;DHT22;47119;49.130;9.218;2023-04-25T03:33:26;13.40;67.76
61351;DHT22;47119;49.130;9.218;2023-04-25T03:35:57;13.33;68.04
61351;DHT22;47119;49.130;9.218;2023-04-25T03:38:24;13.38;68.27
61351;DHT22;47119;49.130;9.218;2023-04-25T03:40:51;13.35;68.47
61351;DHT22;47119;49.130;9.218;2023-04-25T03:43:40;13.32;68.35
61351;DHT22;47119;49.130;9.218;2023-04-25T03:46:13;13.36;68.11
61351;DHT22;47119;49.130;9.218;2023-04-25T03:48:42;13.35;68.25
61351;DHT22;47119;49.130;9.218;2023-04-25T03:51:14;13.32;68.33
61351;DHT22;47119;49.130;9.218;2023-04-25T03:53:43;13.29;68.43
61351;DHT22;47119;49.130;9.218;2023-04-25T03:56:15;13.33;68.49
61351;DHT22;47119;49.130;9.218;2023-04-25T03:58:46;13.32;68.23
61351;DHT22;47119;49.130;9.218;2023-04-25T04:01:18;13.30;68.41
61351;DHT22;47119;49.130;9.218;2023-04-25T04:03:47;13.29;68.47
61351;DHT22;47119;49.130;9.218;2023-04-25T04:06:17;13.36;68.21
61351;DHT22;47119;49.130;9.218;2023-04-25T04:08:49;13.32;68.33
61351;DHT22;47119;49.130;9.218;2023-04-25T04:11:16;13.39;68.39
61351;DHT22;47119;49.130;9.218;2023-04-25T04:13:46;13.50;68.06
61351;DHT22;47119;49.130;9.218;2023-04-25T04:16:13;13.43;68.19
61351;DHT22;47119;49.130;9.218;2023-04-25T04:18:40;13.33;68.49
61351;DHT22;47119;49.130;9.218;2023-04-25T04:21:10;13.32;68.49
61351;DHT22;47119;49.130;9.218;2023-04-25T04:23:40;13.33;68.98
61351;DHT22;47119;49.130;9.218;2023-04-25T04:26:11;13.23;68.73
61351;DHT22;47119;49.130;9.218;2023-04-25T04:28:56;13.22;68.82
61351;DHT22;47119;49.130;9.218;2023-04-25T04:31:53;13.40;68.32
61351;DHT22;47119;49.130;9.218;2023-04-25T04:34:23;13.56;68.26
61351;DHT22;47119;49.130;9.218;2023-04-25T04:36:51;13.44;68.25
61351;DHT22;47119;49.130;9.218;2023-04-25T04:39:19;13.36;68.89
61351;DHT22;47119;49.130;9.218;2023-04-25T04:42:07;13.52;68.28
61351;DHT22;47119;49.130;9.218;2023-04-25T04:44:47;13.50;68.47
61351;DHT22;47119;49.130;9.218;2023-04-25T04:47:40;13.40;68.67
61351;DHT22;47119;49.130;9.218;2023-04-25T04:50:29;13.44;68.44
61351;DHT22;47119;49.130;9.218;2023-04-25T04:53:17;13.47;68.38
61351;DHT22;47119;49.130;9.218;2023-04-25T04:56:07;13.30;68.83
61351;DHT22;47119;49.130;9.218;2023-04-25T04:58:34;13.27;68.96
61351;DHT22;47119;49.130;9.218;2023-04-25T05:01:15;13.25;69.06
61351;DHT22;47119;49.130;9.218;2023-04-25T05:03:58;13.32;69.03
61351;DHT22;47119;49.130;9.218;2023-04-25T05:06:44;13.43;68.50
61351;DHT22;47119;49.130;9.218;2023-04-25T05:09:32;13.20;69.06
61351;DHT22;47119;49.130;9.218;2023-04-25T05:12:19;13.30;69.01
61351;DHT22;47119;49.130;9.218;2023-04-25T05:15:14;13.18;69.03
61351;DHT22;47119;49.130;9.218;2023-04-25T05:17:59;13.15;69.16
61351;DHT22;47119;49.130;9.218;2023-04-25T05:20:52;13.15;69.37
61351;DHT22;47119;49.130;9.218;2023-04-25T05:23:25;13.13;69.18
61351;DHT22;47119;49.130;9.218;2023-04-25T05:25:59;13.11;69.10
61351;DHT22;47119;49.130;9.218;2023-04-25T05:28:49;13.18;69.17
61351;DHT22;47119;49.130;9.218;2023-04-25T05:31:36;13.18;69.13
61351;DHT22;47119;49.130;9.218;2023-04-25T05:34:16;13.15;69.00
61351;DHT22;47119;49.130;9.218;2023-04-25T05:36:52;13.15;69.13
61351;DHT22;47119;49.130;9.218;2023-04-25T05:39:20;13.12;69.30
61351;DHT22;47119;49.130;9.218;2023-04-25T05:42:05;13.23;69.15
61351;DHT22;47119;49.130;9.218;2023-04-25T05:45:00;13.19;68.91
61351;DHT22;47119;49.130;9.218;2023-04-25T05:47:46;13.23;69.10
61351;DHT22;47119;49.130;9.218;2023-04-25T05:50:25;13.19;69.03
61351;DHT22;47119;49.130;9.218;2023-04-25T05:53:12;13.19;69.27
61351;DHT22;47119;49.130;9.218;2023-04-25T05:55:43;13.15;69.46
61351;DHT22;47119;49.130;9.218;2023-04-25T05:58:25;13.11;69.32
61351;DHT22;47119;49.130;9.218;2023-04-25T06:00:58;13.11;69.32
61351;DHT22;47119;49.130;9.218;2023-04-25T06:03:25;12.99;69.39
61351;DHT22;47119;49.130;9.218;2023-04-25T06:05:58;13.01;69.36
61351;DHT22;47119;49.130;9.218;2023-04-25T06:08:27;13.09;69.45
61351;DHT22;47119;49.130;9.218;2023-04-25T06:10:54;13.23;68.92
61351;DHT22;47119;49.130;9.218;2023-04-25T06:13:26;13.15;69.33
61351;DHT22;47119;49.130;9.218;2023-04-25T06:15:54;13.09;69.09
61351;DHT22;47119;49.130;9.218;2023-04-25T06:18:25;13.27;69.32
61351;DHT22;47119;49.130;9.218;2023-04-25T06:20:54;13.33;68.99
61351;DHT22;47119;49.130;9.218;2023-04-25T06:23:24;13.23;69.00
61351;DHT22;47119;49.130;9.218;2023-04-25T06:25:58;13.15;69.11
61351;DHT22;47119;49.130;9.218;2023-04-25T06:28:29;13.12;69.11
61351;DHT22;47119;49.130;9.218;2023-04-25T06:31:01;13.11;69.40
61351;DHT22;47119;49.130;9.218;2023-04-25T06:33:31;13.13;69.39
61351;DHT22;47119;49.130;9.218;2023-04-25T06:36:01;13.06;69.26
61351;DHT22;47119;49.130;9.218;2023-04-25T06:38:30;13.06;69.47
61351;DHT22;47119;49.130;9.218;2023-04-25T06:40:57;13.03;69.49
61351;DHT22;47119;49.130;9.218;2023-04-25T06:43:27;13.09;69.36
61351;DHT22;47119;49.130;9.218;2023-04-25T06:46:04;13.11;69.36
61351;DHT22;47119;49.130;9.218;2023-04-25T06:48:36;13.12;69.28
61351;DHT22;47119;49.130;9.218;2023-04-25T06:51:06;13.06;69.51
61351;DHT22;47119;49.130;9.218;2023-04-25T06:53:38;13.01;69.49
61351;DHT22;47119;49.130;9.218;2023-04-25T06:56:12;13.02;69.63
61351;DHT22;47119;49.130;9.218;2023-04-25T06:58:53;13.08;69.76
61351;DHT22;47119;49.130;9.218;2023-04-25T07:01:34;13.05;69.53
61351;DHT22;47119;49.130;9.218;2023-04-25T07:04:05;13.12;69.34
61351;DHT22;47119;49.130;9.218;2023-04-25T07:06:39;13.15;69.20
61351;DHT22;47119;49.130;9.218;2023-04-25T07:09:10;13.11;69.32
61351;DHT22;47119;49.130;9.218;2023-04-25T07:11:37;13.11;69.26
61351;DHT22;47119;49.130;9.218;2023-04-25T07:14:04;13.05;69.45
61351;DHT22;47119;49.130;9.218;2023-04-25T07:16:33;13.08;69.49
61351;DHT22;47119;49.130;9.218;2023-04-25T07:19:00;13.08;69.22
61351;DHT22;47119;49.130;9.218;2023-04-25T07:21:27;13.12;68.97
61351;DHT22;47119;49.130;9.218;2023-04-25T07:23:57;13.05;69.20
61351;DHT22;47119;49.130;9.218;2023-04-25T07:26:31;13.02;69.16
61351;DHT22;47119;49.130;9.218;2023-04-25T07:29:24;13.02;69.25
61351;DHT22;47119;49.130;9.218;2023-04-25T07:31:53;13.01;69.18
61351;DHT22;47119;49.130;9.218;2023-04-25T07:34:23;13.02;69.21
61351;DHT22;47119;49.130;9.218;2023-04-25T07:36:51;13.12;68.77
61351;DHT22;47119;49.130;9.218;2023-04-25T07:39:23;13.09;68.54
61351;DHT22;47119;49.130;9.218;2023-04-25T07:41:56;13.09;68.55
61351;DHT22;47119;49.130;9.218;2023-04-25T07:44:28;13.08;68.82
61351;DHT22;47119;49.130;9.218;2023-04-25T07:46:56;13.08;68.89
61351;DHT22;47119;49.130;9.218;2023-04-25T07:49:23;13.12;68.69
61351;DHT22;47119;49.130;9.218;2023-04-25T07:51:50;13.09;68.73
61351;DHT22;47119;49.130;9.218;2023-04-25T07:54:21;13.08;68.62
61351;DHT22;47119;49.130;9.218;2023-04-25T07:56:57;13.11;68.53
61351;DHT22;47119;49.130;9.218;2023-04-25T07:59:27;13.20;68.19
61351;DHT22;47119;49.130;9.218;2023-04-25T08:01:54;13.13;68.40
61351;DHT22;47119;49.130;9.218;2023-04-25T08:04:27;13.16;68.15
61351;DHT22;47119;49.130;9.218;2023-04-25T08:06:59;13.06;68.28
61351;DHT22;47119;49.130;9.218;2023-04-25T08:09:29;13.08;68.30
61351;DHT22;47119;49.130;9.218;2023-04-25T08:12:05;13.09;68.58
61351;DHT22;47119;49.130;9.218;2023-04-25T08:14:36;13.09;68.61
61351;DHT22;47119;49.130;9.218;2023-04-25T08:17:05;13.12;68.52
61351;DHT22;47119;49.130;9.218;2023-04-25T08:19:38;13.08;68.35
61351;DHT22;47119;49.130;9.218;2023-04-25T08:22:06;13.02;68.31
61351;DHT22;47119;49.130;9.218;2023-04-25T08:24:44;13.12;68.24
61351;DHT22;47119;49.130;9.218;2023-04-25T08:27:15;13.08;68.15
61351;DHT22;47119;49.130;9.218;2023-04-25T08:29:44;13.02;67.71
61351;DHT22;47119;49.130;9.218;2023-04-25T08:32:12;12.99;67.95
61351;DHT22;47119;49.130;9.218;2023-04-25T08:34:47;13.01;68.03
61351;DHT22;47119;49.130;9.218;2023-04-25T08:37:14;13.02;67.67
61351;DHT22;47119;49.130;9.218;2023-04-25T08:39:52;13.06;67.83
61351;DHT22;47119;49.130;9.218;2023-04-25T08:42:37;13.06;67.96
61351;DHT22;47119;49.130;9.218;2023-04-25T08:45:08;13.12;67.89
61351;DHT22;47119;49.130;9.218;2023-04-25T08:47:42;13.11;67.92
61351;DHT22;47119;49.130;9.218;2023-04-25T08:50:14;13.13;67.90
61351;DHT22;47119;49.130;9.218;2023-04-25T08:52:44;13.16;67.18
61351;DHT22;47119;49.130;9.218;2023-04-25T08:55:15;13.18;67.72
61351;DHT22;47119;49.130;9.218;2023-04-25T08:57:44;13.20;67.29
61351;DHT22;47119;49.130;9.218;2023-04-25T09:00:16;13.18;67.47
61351;DHT22;47119;49.130;9.218;2023-04-25T09:02:46;13.20;67.61
61351;DHT22;47119;49.130;9.218;2023-04-25T09:05:18;13.23;67.32
61351;DHT22;47119;49.130;9.218;2023-04-25T09:07:47;13.22;67.44
61351;DHT22;47119;49.130;9.218;2023-04-25T09:10:19;13.22;67.35
61351;DHT22;47119;49.130;9.218;2023-04-25T09:13:03;13.20;66.89
61351;DHT22;47119;49.130;9.218;2023-04-25T09:15:50;13.27;67.07
61351;DHT22;47119;49.130;9.218;2023-04-25T09:18:34;13.32;67.00
61351;DHT22;47119;49.130;9.218;2023-04-25T09:21:05;13.22;67.22
61351;DHT22;47119;49.130;9.218;2023-04-25T09:23:39;13.19;67.04
61351;DHT22;47119;49.130;9.218;2023-04-25T09:26:14;13.11;66.34
61351;DHT22;47119;49.130;9.218;2023-04-25T09:28:45;12.89;65.92
61351;DHT22;47119;49.130;9.218;2023-04-25T09:31:21;12.91;67.44
61351;DHT22;47119;49.130;9.218;2023-04-25T09:33:58;12.84;69.37
61351;DHT22;47119;49.130;9.218;2023-04-25T09:36:35;12.92;69.40
61351;DHT22;47119;49.130;9.218;2023-04-25T09:39:20;13.01;69.22
61351;DHT22;47119;49.130;9.218;2023-04-25T09:42:30;12.95;70.64
61351;DHT22;47119;49.130;9.218;2023-04-25T11:07:26;13.46;71.73
61351;DHT22;47119;49.130;9.218;2023-04-25T11:10:02;13.38;71.27
61351;DHT22;47119;49.130;9.218;2023-04-25T11:12:31;13.43;72.15
61351;DHT22;47119;49.130;9.218;2023-04-25T11:15:25;13.46;71.76
61351;DHT22;47119;49.130;9.218;2023-04-25T11:18:15;13.44;71.62
61351;DHT22;47119;49.130;9.218;2023-04-25T11:21:05;13.44;71.70
61351;DHT22;47119;49.130;9.218;2023-04-25T11:23:37;13.49;71.98
61351;DHT22;47119;49.130;9.218;2023-04-25T11:43:48;13.84;70.81
61351;DHT22;47119;49.130;9.218;2023-04-25T11:46:40;13.81;69.99
61351;DHT22;47119;49.130;9.218;2023-04-25T11:49:42;13.81;70.22
61351;DHT22;47119;49.130;9.218;2023-04-25T11:52:15;13.84;70.58
61351;DHT22;47119;49.130;9.218;2023-04-25T11:54:48;13.84;70.26
61351;DHT22;47119;49.130;9.218;2023-04-25T11:57:15;13.88;70.18
61351;DHT22;47119;49.130;9.218;2023-04-25T13:50:20;13.67;64.17
61351;DHT22;47119;49.130;9.218;2023-04-25T13:52:47;13.63;62.22
61351;DHT22;47119;49.130;9.218;2023-04-25T13:55:15;13.60;62.73
61351;DHT22;47119;49.130;9.218;2023-04-25T13:57:44;13.59;61.94
61351;DHT22;47119;49.130;9.218;2023-04-25T14:00:13;13.57;61.90
61351;DHT22;47119;49.130;9.218;2023-04-25T14:02:50;13.56;62.38
61351;DHT22;47119;49.130;9.218;2023-04-25T14:05:17;13.60;62.01
61351;DHT22;47119;49.130;9.218;2023-04-25T14:07:46;13.63;61.41
61351;DHT22;47119;49.130;9.218;2023-04-25T14:10:15;13.63;62.18
61351;DHT22;47119;49.130;9.218;2023-04-25T14:12:45;13.67;62.13
61351;DHT22;47119;49.130;9.218;2023-04-25T14:15:16;13.67;61.04
61351;DHT22;47119;49.130;9.218;2023-04-25T14:17:44;13.66;60.92
61351;DHT22;47119;49.130;9.218;2023-04-25T14:20:13;13.67;61.19
61351;DHT22;47119;49.130;9.218;2023-04-25T14:22:42;13.69;61.87
61351;DHT22;47119;49.130;9.218;2023-04-25T14:25:11;13.70;61.53
61351;DHT22;47119;49.130;9.218;2023-04-25T14:27:38;13.69;62.19
61351;DHT22;47119;49.130;9.218;2023-04-25T14:30:06;13.70;61.30
61351;DHT22;47119;49.130;9.218;2023-04-25T14:32:35;13.64;61.51
61351;DHT22;47119;49.130;9.218;2023-04-25T14:35:29;13.67;61.30
61351;DHT22;47119;49.130;9.218;2023-04-25T14:37:56;13.70;61.06
61351;DHT22;47119;49.130;9.218;2023-04-25T14:40:25;13.70;61.26
61351;DHT22;47119;49.130;9.218;2023-04-25T14:42:53;13.71;60.49
61351;DHT22;47119;49.130;9.218;2023-04-25T14:45:21;13.60;60.07
61351;DHT22;47119;49.130;9.218;2023-04-25T14:47:48;13.63;59.80
61351;DHT22;47119;49.130;9.218;2023-04-25T14:50:17;13.62;59.91
61351;DHT22;47119;49.130;9.218;2023-04-25T14:52:47;13.67;60.19
61351;DHT22;47119;49.130;9.218;2023-04-25T14:55:14;13.66;59.14
61351;DHT22;47119;49.130;9.218;2023-04-25T15:06:18;13.56;58.55
61351;DHT22;47119;49.130;9.218;2023-04-25T15:08:52;13.60;59.33
61351;DHT22;47119;49.130;9.218;2023-04-25T15:11:19;13.64;59.24
61351;DHT22;47119;49.130;9.218;2023-04-25T15:13:47;13.62;58.70
61351;DHT22;47119;49.130;9.218;2023-04-25T15:16:15;13.64;59.19
61351;DHT22;47119;49.130;9.218;2023-04-25T15:18:45;13.70;58.92
61351;DHT22;47119;49.130;9.218;2023-04-25T15:21:12;13.70;58.89
61351;DHT22;47119;49.130;9.218;2023-04-25T15:23:41;13.77;58.95
61351;DHT22;47119;49.130;9.218;2023-04-25T15:26:08;13.80;58.32
61351;DHT22;47119;49.130;9.218;2023-04-25T15:28:41;13.83;59.25
61351;DHT22;47119;49.130;9.218;2023-04-25T17:10:38;13.67;59.53
61351;DHT22;47119;49.130;9.218;2023-04-25T17:13:55;13.63;59.73
61351;DHT22;47119;49.130;9.218;2023-04-25T17:18:34;13.66;60.38
61351;DHT22;47119;49.130;9.218;2023-04-25T17:22:00;13.62;58.84
61351;DHT22;47119;49.130;9.218;2023-04-25T17:24:56;13.66;59.07
61351;DHT22;47119;49.130;9.218;2023-04-25T17:27:28;13.67;59.13
61351;DHT22;47119;49.130;9.218;2023-04-25T17:30:05;13.62;58.26
61351;DHT22;47119;49.130;9.218;2023-04-25T17:32:46;13.62;58.74
61351;DHT22;47119;49.130;9.218;2023-04-25T17:35:14;13.56;58.09
61351;DHT22;47119;49.130;9.218;2023-04-25T17:38:25;13.59;58.31
61351;DHT22;47119;49.130;9.218;2023-04-25T17:40:59;13.54;58.42
61351;DHT22;47119;49.130;9.218;2023-04-25T17:46:52;13.52;58.38
61351;DHT22;47119;49.130;9.218;2023-04-25T17:49:23;13.56;58.77
61351;DHT22;47119;49.130;9.218;2023-04-25T17:51:57;13.54;58.33
61351;DHT22;47119;49.130;9.218;2023-04-25T17:54:40;13.56;58.22
61351;DHT22;47119;49.130;9.218;2023-04-25T17:57:13;13.52;58.21
61351;DHT22;47119;49.130;9.218;2023-04-25T17:59:42;13.53;58.45
61351;DHT22;47119;49.130;9.218;2023-04-25T18:05:51;13.59;58.90
61351;DHT22;47119;49.130;9.218;2023-04-25T18:08:19;13.53;58.42
61351;DHT22;47119;49.130;9.218;2023-04-25T18:10:47;13.53;59.03
61351;DHT22;47119;49.130;9.218;2023-04-25T18:13:30;13.54;59.24
61351;DHT22;47119;49.130;9.218;2023-04-25T18:16:27;13.62;59.47
61351;DHT22;47119;49.130;9.218;2023-04-25T18:18:59;13.71;59.64
61351;DHT22;47119;49.130;9.218;2023-04-25T18:21:33;13.77;60.16
61351;DHT22;47119;49.130;9.218;2023-04-25T18:24:17;13.71;60.55
61351;DHT22;47119;49.130;9.218;2023-04-25T18:26:57;13.69;60.97
61351;DHT22;47119;49.130;9.218;2023-04-25T18:42:43;13.57;62.95
61351;DHT22;47119;49.130;9.218;2023-04-25T18:55:47;13.43;63.85
61351;DHT22;47119;49.130;9.218;2023-04-25T19:12:27;13.50;64.50
61351;DHT22;47119;49.130;9.218;2023-04-25T19:21:16;13.43;64.56
61351;DHT22;47119;49.130;9.218;2023-04-25T23:27:59;12.74;65.82
61351;DHT22;47119;49.130;9.218;2023-04-25T23:30:39;12.71;65.80
61351;DHT22;47119;49.130;9.218;2023-04-25T23:33:16;12.69;65.84
61351;DHT22;47119;49.130;9.218;2023-04-25T23:36:22;12.65;65.82
61351;DHT22;47119;49.130;9.218;2023-04-25T23:39:09;12.67;65.93
61351;DHT22;47119;49.130;9.218;2023-04-25T23:41:56;12.69;65.65
61351;DHT22;47119;49.130;9.218;2023-04-25T23:44:42;12.68;65.67
61351;DHT22;47119;49.130;9.218;2023-04-25T23:48:12;12.67;65.56
61351;DHT22;47119;49.130;9.218;2023-04-25T23:51:29;12.58;65.78
61351;DHT22;47119;49.130;9.218;2023-04-25T23:54:07;12.61;65.81
61351;DHT22;47119;49.130;9.218;2023-04-25T23:57:13;12.57;65.89
